Terminal Aerodrome Forecast
Issued by NWS

Home | Current Version | Previous Version | Graphics & Text | Print | Product List | Glossary On
Versions: 1 2 3 4 5 6 7 8 9 10 11 12 13 14 15
125
FTUS43 KMPX 211120
TAFRWF
TAF
KRWF 211120Z 2112/2212 17016KT P6SM VCSH OVC050
      TEMPO 2112/2115 6SM -SHRA
     FM211500 17019G27KT P6SM OVC025
     FM211800 19016G24KT P6SM VCSH OVC020
     FM212100 27012KT P6SM -SHRA OVC030
     FM212300 28010KT P6SM BKN045=

USA.gov is the U.S. government's official web portal to all federal, state and local government web resources and services.